sensor_id;sensor_type;location;lat;lon;timestamp;P1;durP1;ratioP1;P2;durP2;ratioP2
48161;SDS011;33950;48.154;16.316;2022-12-16T00:01:25;191.18;;;53.90;;
48161;SDS011;33950;48.154;16.316;2022-12-16T00:04:12;179.93;;;52.65;;
48161;SDS011;33950;48.154;16.316;2022-12-16T00:06:58;196.07;;;55.90;;
48161;SDS011;33950;48.154;16.316;2022-12-16T00:09:45;202.00;;;55.78;;
48161;SDS011;33950;48.154;16.316;2022-12-16T00:12:31;217.88;;;55.33;;
48161;SDS011;33950;48.154;16.316;2022-12-16T00:15:17;191.75;;;52.78;;
48161;SDS011;33950;48.154;16.316;2022-12-16T00:18:04;177.00;;;49.63;;
48161;SDS011;33950;48.154;16.316;2022-12-16T00:20:51;182.77;;;50.28;;
48161;SDS011;33950;48.154;16.316;2022-12-16T00:23:38;175.73;;;48.30;;
48161;SDS011;33950;48.154;16.316;2022-12-16T00:26:30;169.35;;;48.40;;
48161;SDS011;33950;48.154;16.316;2022-12-16T00:29:16;158.65;;;44.42;;
48161;SDS011;33950;48.154;16.316;2022-12-16T00:32:02;168.27;;;46.15;;
48161;SDS011;33950;48.154;16.316;2022-12-16T00:34:49;163.50;;;46.30;;
48161;SDS011;33950;48.154;16.316;2022-12-16T00:37:35;154.38;;;42.33;;
48161;SDS011;33950;48.154;16.316;2022-12-16T00:40:21;180.50;;;42.72;;
48161;SDS011;33950;48.154;16.316;2022-12-16T00:43:08;150.57;;;43.25;;
48161;SDS011;33950;48.154;16.316;2022-12-16T00:45:55;140.98;;;39.47;;
48161;SDS011;33950;48.154;16.316;2022-12-16T00:48:41;153.63;;;40.45;;
48161;SDS011;33950;48.154;16.316;2022-12-16T00:51:27;142.63;;;39.17;;
48161;SDS011;33950;48.154;16.316;2022-12-16T00:54:13;119.35;;;35.05;;
48161;SDS011;33950;48.154;16.316;2022-12-16T00:56:59;139.52;;;38.72;;
48161;SDS011;33950;48.154;16.316;2022-12-16T00:59:46;139.43;;;36.83;;
48161;SDS011;33950;48.154;16.316;2022-12-16T01:02:33;142.85;;;37.08;;
48161;SDS011;33950;48.154;16.316;2022-12-16T01:05:19;126.07;;;36.40;;
48161;SDS011;33950;48.154;16.316;2022-12-16T01:08:11;115.10;;;33.70;;
48161;SDS011;33950;48.154;16.316;2022-12-16T01:10:57;129.90;;;37.13;;
48161;SDS011;33950;48.154;16.316;2022-12-16T01:13:43;142.48;;;36.83;;
48161;SDS011;33950;48.154;16.316;2022-12-16T01:16:30;131.48;;;37.40;;
48161;SDS011;33950;48.154;16.316;2022-12-16T01:19:19;118.95;;;34.78;;
48161;SDS011;33950;48.154;16.316;2022-12-16T01:22:05;109.18;;;34.45;;
48161;SDS011;33950;48.154;16.316;2022-12-16T01:24:51;123.55;;;35.88;;
48161;SDS011;33950;48.154;16.316;2022-12-16T01:27:37;110.70;;;33.65;;
48161;SDS011;33950;48.154;16.316;2022-12-16T01:30:24;99.88;;;32.60;;
48161;SDS011;33950;48.154;16.316;2022-12-16T01:33:12;109.63;;;34.22;;
48161;SDS011;33950;48.154;16.316;2022-12-16T01:35:58;115.15;;;33.50;;
48161;SDS011;33950;48.154;16.316;2022-12-16T01:38:45;99.65;;;31.33;;
48161;SDS011;33950;48.154;16.316;2022-12-16T01:41:31;94.22;;;29.85;;
48161;SDS011;33950;48.154;16.316;2022-12-16T01:44:18;93.25;;;30.05;;
48161;SDS011;33950;48.154;16.316;2022-12-16T01:47:05;89.38;;;29.08;;
48161;SDS011;33950;48.154;16.316;2022-12-16T01:49:56;98.10;;;29.73;;
48161;SDS011;33950;48.154;16.316;2022-12-16T01:52:46;82.55;;;26.52;;
48161;SDS011;33950;48.154;16.316;2022-12-16T01:55:36;75.07;;;27.48;;
48161;SDS011;33950;48.154;16.316;2022-12-16T01:58:26;70.28;;;26.45;;
48161;SDS011;33950;48.154;16.316;2022-12-16T02:01:16;79.70;;;26.93;;
48161;SDS011;33950;48.154;16.316;2022-12-16T02:04:02;69.15;;;25.70;;
48161;SDS011;33950;48.154;16.316;2022-12-16T02:06:50;64.15;;;24.33;;
48161;SDS011;33950;48.154;16.316;2022-12-16T02:09:36;67.43;;;25.45;;
48161;SDS011;33950;48.154;16.316;2022-12-16T02:12:24;70.60;;;25.63;;
48161;SDS011;33950;48.154;16.316;2022-12-16T02:15:22;66.38;;;24.55;;
48161;SDS011;33950;48.154;16.316;2022-12-16T02:18:18;67.03;;;26.63;;
48161;SDS011;33950;48.154;16.316;2022-12-16T02:21:25;76.03;;;26.63;;
48161;SDS011;33950;48.154;16.316;2022-12-16T02:27:54;92.70;;;29.83;;
48161;SDS011;33950;48.154;16.316;2022-12-16T02:30:52;81.72;;;28.90;;
48161;SDS011;33950;48.154;16.316;2022-12-16T02:33:59;82.05;;;29.30;;
48161;SDS011;33950;48.154;16.316;2022-12-16T02:36:56;84.10;;;29.73;;
48161;SDS011;33950;48.154;16.316;2022-12-16T02:39:51;89.45;;;31.27;;
48161;SDS011;33950;48.154;16.316;2022-12-16T02:42:44;95.90;;;32.08;;
48161;SDS011;33950;48.154;16.316;2022-12-16T02:45:34;87.22;;;31.15;;
48161;SDS011;33950;48.154;16.316;2022-12-16T02:48:23;86.80;;;30.67;;
48161;SDS011;33950;48.154;16.316;2022-12-16T02:51:09;83.43;;;30.15;;
48161;SDS011;33950;48.154;16.316;2022-12-16T02:53:56;173.15;;;66.70;;
48161;SDS011;33950;48.154;16.316;2022-12-16T02:56:45;161.88;;;65.35;;
48161;SDS011;33950;48.154;16.316;2022-12-16T02:59:41;87.70;;;31.52;;
48161;SDS011;33950;48.154;16.316;2022-12-16T03:02:40;87.35;;;30.90;;
48161;SDS011;33950;48.154;16.316;2022-12-16T03:05:34;108.75;;;34.83;;
48161;SDS011;33950;48.154;16.316;2022-12-16T03:08:23;100.10;;;34.33;;
48161;SDS011;33950;48.154;16.316;2022-12-16T03:11:14;107.80;;;37.22;;
48161;SDS011;33950;48.154;16.316;2022-12-16T03:14:00;106.22;;;34.88;;
48161;SDS011;33950;48.154;16.316;2022-12-16T03:16:50;99.60;;;33.33;;
48161;SDS011;33950;48.154;16.316;2022-12-16T03:19:37;107.25;;;35.28;;
48161;SDS011;33950;48.154;16.316;2022-12-16T03:22:30;98.00;;;34.17;;
48161;SDS011;33950;48.154;16.316;2022-12-16T03:25:20;105.20;;;32.92;;
48161;SDS011;33950;48.154;16.316;2022-12-16T03:28:10;89.60;;;31.58;;
48161;SDS011;33950;48.154;16.316;2022-12-16T03:31:11;98.70;;;33.13;;
48161;SDS011;33950;48.154;16.316;2022-12-16T03:34:04;91.65;;;31.63;;
48161;SDS011;33950;48.154;16.316;2022-12-16T03:36:57;82.40;;;29.95;;
48161;SDS011;33950;48.154;16.316;2022-12-16T03:39:48;80.13;;;26.75;;
48161;SDS011;33950;48.154;16.316;2022-12-16T03:42:40;73.28;;;27.45;;
48161;SDS011;33950;48.154;16.316;2022-12-16T03:45:28;89.75;;;35.60;;
48161;SDS011;33950;48.154;16.316;2022-12-16T03:48:20;79.78;;;28.92;;
48161;SDS011;33950;48.154;16.316;2022-12-16T03:51:08;54.67;;;22.13;;
48161;SDS011;33950;48.154;16.316;2022-12-16T03:53:54;56.45;;;21.42;;
48161;SDS011;33950;48.154;16.316;2022-12-16T03:56:41;50.33;;;19.85;;
48161;SDS011;33950;48.154;16.316;2022-12-16T03:59:27;48.17;;;19.83;;
48161;SDS011;33950;48.154;16.316;2022-12-16T04:02:13;38.58;;;16.65;;
48161;SDS011;33950;48.154;16.316;2022-12-16T04:04:59;34.60;;;14.38;;
48161;SDS011;33950;48.154;16.316;2022-12-16T04:07:46;28.35;;;12.82;;
48161;SDS011;33950;48.154;16.316;2022-12-16T04:10:32;30.75;;;12.43;;
48161;SDS011;33950;48.154;16.316;2022-12-16T04:13:38;23.67;;;10.77;;
48161;SDS011;33950;48.154;16.316;2022-12-16T04:16:42;25.25;;;11.15;;
48161;SDS011;33950;48.154;16.316;2022-12-16T04:19:48;20.27;;;11.02;;
48161;SDS011;33950;48.154;16.316;2022-12-16T04:22:53;18.15;;;10.02;;
48161;SDS011;33950;48.154;16.316;2022-12-16T04:25:58;18.55;;;9.45;;
48161;SDS011;33950;48.154;16.316;2022-12-16T04:28:46;19.48;;;9.23;;
48161;SDS011;33950;48.154;16.316;2022-12-16T04:31:32;18.35;;;9.20;;
48161;SDS011;33950;48.154;16.316;2022-12-16T04:34:18;16.70;;;8.02;;
48161;SDS011;33950;48.154;16.316;2022-12-16T04:37:11;14.70;;;7.65;;
48161;SDS011;33950;48.154;16.316;2022-12-16T04:40:16;16.50;;;8.50;;
48161;SDS011;33950;48.154;16.316;2022-12-16T04:43:21;19.85;;;8.82;;
48161;SDS011;33950;48.154;16.316;2022-12-16T04:46:27;17.70;;;7.97;;
48161;SDS011;33950;48.154;16.316;2022-12-16T04:49:31;18.70;;;8.75;;
48161;SDS011;33950;48.154;16.316;2022-12-16T04:52:36;16.67;;;8.30;;
48161;SDS011;33950;48.154;16.316;2022-12-16T04:55:41;17.80;;;9.18;;
48161;SDS011;33950;48.154;16.316;2022-12-16T04:58:46;25.25;;;10.13;;
48161;SDS011;33950;48.154;16.316;2022-12-16T05:01:52;18.90;;;9.57;;
48161;SDS011;33950;48.154;16.316;2022-12-16T05:04:56;20.92;;;9.32;;
48161;SDS011;33950;48.154;16.316;2022-12-16T05:08:01;18.52;;;9.68;;
48161;SDS011;33950;48.154;16.316;2022-12-16T05:11:05;22.83;;;11.05;;
48161;SDS011;33950;48.154;16.316;2022-12-16T05:14:10;21.77;;;10.18;;
48161;SDS011;33950;48.154;16.316;2022-12-16T05:17:16;19.25;;;9.35;;
48161;SDS011;33950;48.154;16.316;2022-12-16T05:20:21;15.75;;;8.68;;
48161;SDS011;33950;48.154;16.316;2022-12-16T05:23:25;18.63;;;8.93;;
48161;SDS011;33950;48.154;16.316;2022-12-16T05:26:30;19.70;;;9.15;;
48161;SDS011;33950;48.154;16.316;2022-12-16T05:29:34;18.15;;;9.65;;
48161;SDS011;33950;48.154;16.316;2022-12-16T05:32:40;17.67;;;9.70;;
48161;SDS011;33950;48.154;16.316;2022-12-16T05:35:45;18.63;;;10.10;;
48161;SDS011;33950;48.154;16.316;2022-12-16T05:38:50;17.92;;;9.27;;
48161;SDS011;33950;48.154;16.316;2022-12-16T05:41:55;20.90;;;9.63;;
48161;SDS011;33950;48.154;16.316;2022-12-16T05:44:59;21.45;;;9.00;;
48161;SDS011;33950;48.154;16.316;2022-12-16T05:48:05;18.02;;;9.18;;
48161;SDS011;33950;48.154;16.316;2022-12-16T05:51:10;21.63;;;10.35;;
48161;SDS011;33950;48.154;16.316;2022-12-16T05:54:14;17.70;;;9.65;;
48161;SDS011;33950;48.154;16.316;2022-12-16T05:57:19;22.20;;;10.73;;
48161;SDS011;33950;48.154;16.316;2022-12-16T06:00:23;23.33;;;11.43;;
48161;SDS011;33950;48.154;16.316;2022-12-16T06:03:29;24.27;;;12.05;;
48161;SDS011;33950;48.154;16.316;2022-12-16T06:06:34;19.90;;;10.43;;
48161;SDS011;33950;48.154;16.316;2022-12-16T06:09:39;23.45;;;12.07;;
48161;SDS011;33950;48.154;16.316;2022-12-16T06:12:44;21.13;;;11.68;;
48161;SDS011;33950;48.154;16.316;2022-12-16T06:15:50;23.70;;;11.82;;
48161;SDS011;33950;48.154;16.316;2022-12-16T06:18:56;27.38;;;12.90;;
48161;SDS011;33950;48.154;16.316;2022-12-16T06:22:00;22.75;;;12.45;;
48161;SDS011;33950;48.154;16.316;2022-12-16T06:25:05;30.13;;;12.57;;
48161;SDS011;33950;48.154;16.316;2022-12-16T06:28:10;26.88;;;13.43;;
48161;SDS011;33950;48.154;16.316;2022-12-16T06:31:15;31.02;;;13.95;;
48161;SDS011;33950;48.154;16.316;2022-12-16T06:34:21;34.30;;;14.57;;
48161;SDS011;33950;48.154;16.316;2022-12-16T06:37:26;32.20;;;13.60;;
48161;SDS011;33950;48.154;16.316;2022-12-16T06:40:30;31.02;;;13.55;;
48161;SDS011;33950;48.154;16.316;2022-12-16T06:43:34;38.40;;;13.10;;
48161;SDS011;33950;48.154;16.316;2022-12-16T06:46:39;31.35;;;13.30;;
48161;SDS011;33950;48.154;16.316;2022-12-16T06:49:45;34.47;;;14.75;;
48161;SDS011;33950;48.154;16.316;2022-12-16T06:52:50;32.58;;;14.13;;
48161;SDS011;33950;48.154;16.316;2022-12-16T06:55:55;34.25;;;14.63;;
48161;SDS011;33950;48.154;16.316;2022-12-16T06:58:59;31.55;;;14.65;;
48161;SDS011;33950;48.154;16.316;2022-12-16T07:02:04;33.90;;;14.63;;
48161;SDS011;33950;48.154;16.316;2022-12-16T07:05:10;43.00;;;15.45;;
48161;SDS011;33950;48.154;16.316;2022-12-16T07:08:14;34.67;;;15.57;;
48161;SDS011;33950;48.154;16.316;2022-12-16T07:11:19;42.63;;;14.93;;
48161;SDS011;33950;48.154;16.316;2022-12-16T07:14:23;33.92;;;14.40;;
48161;SDS011;33950;48.154;16.316;2022-12-16T07:17:28;28.58;;;13.68;;
48161;SDS011;33950;48.154;16.316;2022-12-16T07:20:34;30.13;;;13.18;;
48161;SDS011;33950;48.154;16.316;2022-12-16T07:23:38;28.13;;;12.90;;
48161;SDS011;33950;48.154;16.316;2022-12-16T07:26:43;35.75;;;13.60;;
48161;SDS011;33950;48.154;16.316;2022-12-16T07:29:47;39.88;;;16.52;;
48161;SDS011;33950;48.154;16.316;2022-12-16T07:32:52;39.33;;;18.33;;
48161;SDS011;33950;48.154;16.316;2022-12-16T07:35:57;42.72;;;16.77;;
48161;SDS011;33950;48.154;16.316;2022-12-16T07:39:02;41.05;;;17.00;;
48161;SDS011;33950;48.154;16.316;2022-12-16T07:42:07;44.05;;;16.50;;
48161;SDS011;33950;48.154;16.316;2022-12-16T07:45:11;37.83;;;16.85;;
48161;SDS011;33950;48.154;16.316;2022-12-16T07:48:16;39.17;;;18.20;;
48161;SDS011;33950;48.154;16.316;2022-12-16T07:51:22;52.10;;;19.70;;
48161;SDS011;33950;48.154;16.316;2022-12-16T07:54:38;45.80;;;18.17;;
48161;SDS011;33950;48.154;16.316;2022-12-16T07:57:47;52.10;;;19.67;;
48161;SDS011;33950;48.154;16.316;2022-12-16T08:00:52;44.47;;;18.85;;
48161;SDS011;33950;48.154;16.316;2022-12-16T08:03:57;52.53;;;21.45;;
48161;SDS011;33950;48.154;16.316;2022-12-16T08:07:03;54.67;;;21.30;;
48161;SDS011;33950;48.154;16.316;2022-12-16T08:10:09;47.33;;;20.50;;
48161;SDS011;33950;48.154;16.316;2022-12-16T08:13:13;50.25;;;21.55;;
48161;SDS011;33950;48.154;16.316;2022-12-16T08:16:18;52.58;;;21.50;;
48161;SDS011;33950;48.154;16.316;2022-12-16T08:19:22;54.00;;;22.17;;
48161;SDS011;33950;48.154;16.316;2022-12-16T08:22:28;52.25;;;21.10;;
48161;SDS011;33950;48.154;16.316;2022-12-16T08:25:33;51.35;;;21.08;;
48161;SDS011;33950;48.154;16.316;2022-12-16T08:28:38;48.30;;;19.92;;
48161;SDS011;33950;48.154;16.316;2022-12-16T08:31:42;46.15;;;18.55;;
48161;SDS011;33950;48.154;16.316;2022-12-16T08:34:46;45.28;;;18.65;;
48161;SDS011;33950;48.154;16.316;2022-12-16T08:37:54;38.88;;;17.52;;
48161;SDS011;33950;48.154;16.316;2022-12-16T08:40:59;38.90;;;16.50;;
48161;SDS011;33950;48.154;16.316;2022-12-16T08:44:04;34.65;;;15.57;;
48161;SDS011;33950;48.154;16.316;2022-12-16T08:47:08;36.55;;;15.20;;
48161;SDS011;33950;48.154;16.316;2022-12-16T08:50:13;39.92;;;16.55;;
48161;SDS011;33950;48.154;16.316;2022-12-16T08:53:19;35.75;;;15.30;;
48161;SDS011;33950;48.154;16.316;2022-12-16T08:56:24;35.92;;;15.00;;
48161;SDS011;33950;48.154;16.316;2022-12-16T08:59:28;32.40;;;14.90;;
48161;SDS011;33950;48.154;16.316;2022-12-16T09:02:33;30.95;;;13.95;;
48161;SDS011;33950;48.154;16.316;2022-12-16T09:05:37;37.70;;;13.73;;
48161;SDS011;33950;48.154;16.316;2022-12-16T09:08:43;31.20;;;13.63;;
48161;SDS011;33950;48.154;16.316;2022-12-16T09:11:48;31.17;;;14.13;;
48161;SDS011;33950;48.154;16.316;2022-12-16T09:14:52;37.38;;;13.43;;
48161;SDS011;33950;48.154;16.316;2022-12-16T09:17:57;37.47;;;14.05;;
48161;SDS011;33950;48.154;16.316;2022-12-16T09:21:02;32.10;;;13.38;;
48161;SDS011;33950;48.154;16.316;2022-12-16T09:24:08;31.27;;;14.38;;
48161;SDS011;33950;48.154;16.316;2022-12-16T09:27:12;33.72;;;13.43;;
48161;SDS011;33950;48.154;16.316;2022-12-16T09:30:17;34.10;;;15.00;;
48161;SDS011;33950;48.154;16.316;2022-12-16T09:33:21;36.47;;;15.90;;
48161;SDS011;33950;48.154;16.316;2022-12-16T09:36:26;40.65;;;16.00;;
48161;SDS011;33950;48.154;16.316;2022-12-16T09:39:32;41.30;;;16.15;;
48161;SDS011;33950;48.154;16.316;2022-12-16T09:42:39;38.88;;;17.83;;
48161;SDS011;33950;48.154;16.316;2022-12-16T09:45:52;39.20;;;18.33;;
48161;SDS011;33950;48.154;16.316;2022-12-16T09:49:02;47.88;;;20.48;;
48161;SDS011;33950;48.154;16.316;2022-12-16T09:52:16;44.85;;;20.77;;
48161;SDS011;33950;48.154;16.316;2022-12-16T09:55:24;43.28;;;18.05;;
48161;SDS011;33950;48.154;16.316;2022-12-16T09:58:34;39.95;;;16.77;;
48161;SDS011;33950;48.154;16.316;2022-12-16T10:01:43;39.63;;;18.27;;
48161;SDS011;33950;48.154;16.316;2022-12-16T10:04:50;41.70;;;17.55;;
48161;SDS011;33950;48.154;16.316;2022-12-16T10:07:56;40.72;;;17.23;;
48161;SDS011;33950;48.154;16.316;2022-12-16T10:11:10;37.75;;;17.25;;
48161;SDS011;33950;48.154;16.316;2022-12-16T10:17:27;28.45;;;13.63;;
48161;SDS011;33950;48.154;16.316;2022-12-16T10:20:32;31.50;;;14.32;;
48161;SDS011;33950;48.154;16.316;2022-12-16T10:23:45;28.50;;;14.30;;
48161;SDS011;33950;48.154;16.316;2022-12-16T10:27:00;27.70;;;13.32;;
48161;SDS011;33950;48.154;16.316;2022-12-16T10:30:10;24.55;;;12.07;;
48161;SDS011;33950;48.154;16.316;2022-12-16T10:33:17;27.77;;;13.27;;
48161;SDS011;33950;48.154;16.316;2022-12-16T10:36:24;25.95;;;12.65;;
48161;SDS011;33950;48.154;16.316;2022-12-16T10:39:30;27.20;;;13.80;;
48161;SDS011;33950;48.154;16.316;2022-12-16T10:42:41;26.85;;;13.15;;
48161;SDS011;33950;48.154;16.316;2022-12-16T10:45:53;24.75;;;13.38;;
48161;SDS011;33950;48.154;16.316;2022-12-16T10:49:09;27.10;;;14.00;;
48161;SDS011;33950;48.154;16.316;2022-12-16T10:52:18;26.73;;;14.48;;
48161;SDS011;33950;48.154;16.316;2022-12-16T10:55:34;30.48;;;14.18;;
48161;SDS011;33950;48.154;16.316;2022-12-16T10:59:04;32.60;;;15.77;;
48161;SDS011;33950;48.154;16.316;2022-12-16T11:02:15;27.10;;;13.85;;
48161;SDS011;33950;48.154;16.316;2022-12-16T11:05:28;30.90;;;14.73;;
48161;SDS011;33950;48.154;16.316;2022-12-16T11:08:34;29.38;;;15.43;;
48161;SDS011;33950;48.154;16.316;2022-12-16T11:11:39;30.20;;;15.48;;
48161;SDS011;33950;48.154;16.316;2022-12-16T11:14:52;33.35;;;14.90;;
48161;SDS011;33950;48.154;16.316;2022-12-16T11:18:09;28.90;;;14.43;;
48161;SDS011;33950;48.154;16.316;2022-12-16T11:21:16;28.60;;;15.13;;
48161;SDS011;33950;48.154;16.316;2022-12-16T11:24:22;33.70;;;15.75;;
48161;SDS011;33950;48.154;16.316;2022-12-16T11:27:27;39.08;;;16.88;;
48161;SDS011;33950;48.154;16.316;2022-12-16T11:30:33;36.88;;;17.95;;
48161;SDS011;33950;48.154;16.316;2022-12-16T11:33:38;35.17;;;17.15;;
48161;SDS011;33950;48.154;16.316;2022-12-16T11:36:43;33.10;;;15.85;;
48161;SDS011;33950;48.154;16.316;2022-12-16T11:39:49;38.28;;;16.77;;
48161;SDS011;33950;48.154;16.316;2022-12-16T11:42:54;34.92;;;15.77;;
48161;SDS011;33950;48.154;16.316;2022-12-16T11:46:17;37.83;;;16.45;;
48161;SDS011;33950;48.154;16.316;2022-12-16T11:49:29;38.33;;;17.30;;
48161;SDS011;33950;48.154;16.316;2022-12-16T11:52:35;40.10;;;17.77;;
48161;SDS011;33950;48.154;16.316;2022-12-16T11:55:41;36.70;;;16.42;;
48161;SDS011;33950;48.154;16.316;2022-12-16T11:58:49;37.47;;;15.48;;
48161;SDS011;33950;48.154;16.316;2022-12-16T12:02:00;33.35;;;15.32;;
48161;SDS011;33950;48.154;16.316;2022-12-16T12:05:10;33.72;;;15.55;;
48161;SDS011;33950;48.154;16.316;2022-12-16T12:08:16;35.90;;;16.30;;
48161;SDS011;33950;48.154;16.316;2022-12-16T12:11:29;34.10;;;15.30;;
48161;SDS011;33950;48.154;16.316;2022-12-16T12:14:39;33.33;;;15.38;;
48161;SDS011;33950;48.154;16.316;2022-12-16T12:17:56;34.92;;;16.27;;
48161;SDS011;33950;48.154;16.316;2022-12-16T12:21:06;35.47;;;16.45;;
48161;SDS011;33950;48.154;16.316;2022-12-16T12:24:19;37.13;;;16.47;;
48161;SDS011;33950;48.154;16.316;2022-12-16T12:27:31;40.00;;;17.17;;
48161;SDS011;33950;48.154;16.316;2022-12-16T12:30:41;39.35;;;17.17;;
48161;SDS011;33950;48.154;16.316;2022-12-16T12:33:54;40.47;;;17.52;;
48161;SDS011;33950;48.154;16.316;2022-12-16T12:37:09;40.63;;;16.63;;
48161;SDS011;33950;48.154;16.316;2022-12-16T12:43:42;36.78;;;16.42;;
48161;SDS011;33950;48.154;16.316;2022-12-16T12:46:56;46.08;;;18.95;;
48161;SDS011;33950;48.154;16.316;2022-12-16T12:50:04;37.22;;;17.77;;
48161;SDS011;33950;48.154;16.316;2022-12-16T12:53:14;42.75;;;18.20;;
48161;SDS011;33950;48.154;16.316;2022-12-16T12:56:32;37.42;;;18.63;;
48161;SDS011;33950;48.154;16.316;2022-12-16T12:59:45;40.85;;;18.33;;
48161;SDS011;33950;48.154;16.316;2022-12-16T13:02:58;39.60;;;19.02;;
48161;SDS011;33950;48.154;16.316;2022-12-16T13:06:09;41.58;;;19.13;;
48161;SDS011;33950;48.154;16.316;2022-12-16T13:09:24;39.22;;;18.40;;
48161;SDS011;33950;48.154;16.316;2022-12-16T13:12:33;43.53;;;19.15;;
48161;SDS011;33950;48.154;16.316;2022-12-16T13:15:38;37.90;;;17.92;;
48161;SDS011;33950;48.154;16.316;2022-12-16T13:18:42;36.60;;;17.50;;
48161;SDS011;33950;48.154;16.316;2022-12-16T13:21:49;38.47;;;17.95;;
48161;SDS011;33950;48.154;16.316;2022-12-16T13:24:53;39.53;;;19.23;;
48161;SDS011;33950;48.154;16.316;2022-12-16T13:27:58;41.88;;;19.63;;
48161;SDS011;33950;48.154;16.316;2022-12-16T13:31:03;43.67;;;19.73;;
48161;SDS011;33950;48.154;16.316;2022-12-16T13:34:19;36.95;;;17.85;;
48161;SDS011;33950;48.154;16.316;2022-12-16T13:37:29;36.28;;;18.15;;
48161;SDS011;33950;48.154;16.316;2022-12-16T13:40:49;45.30;;;20.95;;
48161;SDS011;33950;48.154;16.316;2022-12-16T13:43:57;47.65;;;20.63;;
48161;SDS011;33950;48.154;16.316;2022-12-16T13:47:02;44.53;;;20.85;;
48161;SDS011;33950;48.154;16.316;2022-12-16T13:50:38;43.47;;;20.67;;
48161;SDS011;33950;48.154;16.316;2022-12-16T13:53:47;48.42;;;20.67;;
48161;SDS011;33950;48.154;16.316;2022-12-16T13:56:53;46.53;;;21.15;;
48161;SDS011;33950;48.154;16.316;2022-12-16T13:59:58;45.40;;;21.33;;
48161;SDS011;33950;48.154;16.316;2022-12-16T14:03:08;48.25;;;21.25;;
48161;SDS011;33950;48.154;16.316;2022-12-16T14:06:18;49.47;;;22.20;;
48161;SDS011;33950;48.154;16.316;2022-12-16T14:09:35;45.78;;;21.67;;
48161;SDS011;33950;48.154;16.316;2022-12-16T14:12:43;44.58;;;21.08;;
48161;SDS011;33950;48.154;16.316;2022-12-16T14:15:58;46.90;;;21.40;;
48161;SDS011;33950;48.154;16.316;2022-12-16T14:19:14;46.45;;;21.25;;
48161;SDS011;33950;48.154;16.316;2022-12-16T14:22:31;50.05;;;22.42;;
48161;SDS011;33950;48.154;16.316;2022-12-16T14:25:54;53.58;;;23.02;;
48161;SDS011;33950;48.154;16.316;2022-12-16T14:29:00;52.75;;;24.20;;
48161;SDS011;33950;48.154;16.316;2022-12-16T14:32:19;51.33;;;23.10;;
48161;SDS011;33950;48.154;16.316;2022-12-16T14:35:29;58.85;;;23.50;;
48161;SDS011;33950;48.154;16.316;2022-12-16T14:38:34;58.30;;;24.92;;
48161;SDS011;33950;48.154;16.316;2022-12-16T14:41:40;60.55;;;24.27;;
48161;SDS011;33950;48.154;16.316;2022-12-16T14:44:44;56.38;;;25.20;;
48161;SDS011;33950;48.154;16.316;2022-12-16T14:47:50;71.85;;;26.65;;
48161;SDS011;33950;48.154;16.316;2022-12-16T14:50:54;65.40;;;26.55;;
48161;SDS011;33950;48.154;16.316;2022-12-16T14:54:09;65.75;;;25.40;;
48161;SDS011;33950;48.154;16.316;2022-12-16T14:57:31;66.25;;;25.38;;
48161;SDS011;33950;48.154;16.316;2022-12-16T15:00:38;57.45;;;26.85;;
48161;SDS011;33950;48.154;16.316;2022-12-16T15:03:48;60.83;;;27.25;;
48161;SDS011;33950;48.154;16.316;2022-12-16T15:06:53;66.95;;;27.80;;
48161;SDS011;33950;48.154;16.316;2022-12-16T15:09:58;67.28;;;28.15;;
48161;SDS011;33950;48.154;16.316;2022-12-16T15:13:08;81.65;;;30.98;;
48161;SDS011;33950;48.154;16.316;2022-12-16T15:16:17;72.97;;;28.52;;
48161;SDS011;33950;48.154;16.316;2022-12-16T15:19:26;72.72;;;29.58;;
48161;SDS011;33950;48.154;16.316;2022-12-16T15:22:33;79.35;;;30.25;;
48161;SDS011;33950;48.154;16.316;2022-12-16T15:25:38;72.57;;;29.00;;
48161;SDS011;33950;48.154;16.316;2022-12-16T15:28:44;84.70;;;30.45;;
48161;SDS011;33950;48.154;16.316;2022-12-16T15:31:49;79.60;;;32.15;;
48161;SDS011;33950;48.154;16.316;2022-12-16T15:34:54;73.05;;;30.35;;
48161;SDS011;33950;48.154;16.316;2022-12-16T15:37:58;77.97;;;30.95;;
48161;SDS011;33950;48.154;16.316;2022-12-16T15:41:03;84.80;;;32.22;;
48161;SDS011;33950;48.154;16.316;2022-12-16T15:44:16;98.28;;;33.28;;
48161;SDS011;33950;48.154;16.316;2022-12-16T15:47:24;79.15;;;31.73;;
48161;SDS011;33950;48.154;16.316;2022-12-16T15:50:37;82.95;;;33.33;;
48161;SDS011;33950;48.154;16.316;2022-12-16T15:53:44;88.38;;;32.15;;
48161;SDS011;33950;48.154;16.316;2022-12-16T15:56:49;86.50;;;33.85;;
48161;SDS011;33950;48.154;16.316;2022-12-16T15:59:58;87.88;;;33.60;;
48161;SDS011;33950;48.154;16.316;2022-12-16T16:03:03;85.07;;;31.67;;
48161;SDS011;33950;48.154;16.316;2022-12-16T16:06:12;73.70;;;30.45;;
48161;SDS011;33950;48.154;16.316;2022-12-16T16:09:20;87.13;;;31.30;;
48161;SDS011;33950;48.154;16.316;2022-12-16T16:12:26;94.05;;;34.22;;
48161;SDS011;33950;48.154;16.316;2022-12-16T16:15:31;83.68;;;32.97;;
48161;SDS011;33950;48.154;16.316;2022-12-16T16:18:38;92.47;;;35.33;;
48161;SDS011;33950;48.154;16.316;2022-12-16T16:21:45;89.72;;;34.75;;
48161;SDS011;33950;48.154;16.316;2022-12-16T16:24:49;94.65;;;37.22;;
48161;SDS011;33950;48.154;16.316;2022-12-16T16:27:54;86.68;;;34.55;;
48161;SDS011;33950;48.154;16.316;2022-12-16T16:31:00;98.43;;;37.00;;
48161;SDS011;33950;48.154;16.316;2022-12-16T16:34:05;96.45;;;34.40;;
48161;SDS011;33950;48.154;16.316;2022-12-16T16:37:12;85.25;;;33.42;;
48161;SDS011;33950;48.154;16.316;2022-12-16T16:40:27;83.75;;;31.75;;
48161;SDS011;33950;48.154;16.316;2022-12-16T16:43:36;84.43;;;31.38;;
48161;SDS011;33950;48.154;16.316;2022-12-16T16:46:42;79.82;;;31.67;;
48161;SDS011;33950;48.154;16.316;2022-12-16T16:49:48;80.28;;;31.15;;
48161;SDS011;33950;48.154;16.316;2022-12-16T16:52:53;86.88;;;31.58;;
48161;SDS011;33950;48.154;16.316;2022-12-16T16:55:57;80.80;;;31.48;;
48161;SDS011;33950;48.154;16.316;2022-12-16T16:59:03;89.80;;;32.38;;
48161;SDS011;33950;48.154;16.316;2022-12-16T17:02:13;83.38;;;30.80;;
48161;SDS011;33950;48.154;16.316;2022-12-16T17:05:20;78.95;;;30.95;;
48161;SDS011;33950;48.154;16.316;2022-12-16T17:08:24;85.95;;;32.22;;
48161;SDS011;33950;48.154;16.316;2022-12-16T17:11:29;81.05;;;33.10;;
48161;SDS011;33950;48.154;16.316;2022-12-16T17:14:34;81.70;;;33.15;;
48161;SDS011;33950;48.154;16.316;2022-12-16T17:17:40;85.55;;;31.58;;
48161;SDS011;33950;48.154;16.316;2022-12-16T17:20:45;87.70;;;32.95;;
48161;SDS011;33950;48.154;16.316;2022-12-16T17:23:49;92.70;;;35.28;;
48161;SDS011;33950;48.154;16.316;2022-12-16T17:26:54;89.03;;;35.58;;
48161;SDS011;33950;48.154;16.316;2022-12-16T17:29:59;101.43;;;36.35;;
48161;SDS011;33950;48.154;16.316;2022-12-16T17:33:05;87.63;;;35.17;;
48161;SDS011;33950;48.154;16.316;2022-12-16T17:36:10;92.05;;;35.15;;
48161;SDS011;33950;48.154;16.316;2022-12-16T17:39:16;95.50;;;36.97;;
48161;SDS011;33950;48.154;16.316;2022-12-16T17:42:21;94.13;;;37.92;;